Time;durP1;ratioP1;P1;durP2;ratioP2;P2;SDS_P1;SDS_P2;PMS_P1;PMS_P2;Temp;Humidity;BMP_temperature;BMP_pressure;BME280_temperature;BME280_humidity;BME280_pressure;Samples;Min_cycle;Max_cycle;Signal;HPM_P1;HPM_P2
2023/05/06 00:01:06;;;;;;;25.63;15.97;;;10.90;81.70;;;;;;6197234;22;20031;-93
2023/05/06 00:03:33;;;;;;;47.57;20.70;;;10.90;81.80;;;;;;6195860;22;20050;-92
2023/05/06 00:05:59;;;;;;;39.60;21.02;;;10.90;81.80;;;;;;6198024;22;20015;-92
2023/05/06 00:08:28;;;;;;;15.68;12.65;;;10.80;81.70;;;;;;6215215;22;20462;-93
2023/05/06 00:10:54;;;;;;;22.33;14.75;;;10.80;81.60;;;;;;6198430;22;20015;-92
2023/05/06 00:13:20;;;;;;;16.25;12.38;;;10.80;81.50;;;;;;6220626;22;20023;-93
2023/05/06 00:15:45;;;;;;;17.40;13.25;;;10.80;81.40;;;;;;6198011;22;20058;-93
2023/05/06 00:18:11;;;;;;;19.40;13.98;;;10.70;81.40;;;;;;6214628;22;20506;-92
2023/05/06 00:20:38;;;;;;;31.42;18.00;;;10.70;81.40;;;;;;6197563;22;20446;-91
2023/05/06 00:23:03;;;;;;;64.03;24.88;;;10.70;81.50;;;;;;6220521;22;20365;-92
2023/05/06 00:25:29;;;;;;;51.53;21.33;;;10.70;81.70;;;;;;6222572;22;20111;-93
2023/05/06 00:27:55;;;;;;;23.27;15.52;;;10.70;81.70;;;;;;6214745;22;20011;-92
2023/05/06 00:30:21;;;;;;;36.28;19.35;;;10.70;81.70;;;;;;6222790;22;20039;-91
2023/05/06 00:32:47;;;;;;;22.92;15.25;;;10.70;81.70;;;;;;6220735;22;20102;-92
2023/05/06 00:35:13;;;;;;;28.00;17.40;;;10.70;81.60;;;;;;6222621;22;20058;-93
2023/05/06 00:37:39;;;;;;;49.95;24.63;;;10.70;81.70;;;;;;6216214;22;20155;-93
2023/05/06 00:40:05;;;;;;;34.00;21.23;;;10.70;82.00;;;;;;6198188;22;20012;-93
2023/05/06 00:42:32;;;;;;;51.75;25.38;;;10.70;82.30;;;;;;6195477;22;20015;-92
2023/05/06 00:44:57;;;;;;;49.27;24.30;;;10.70;82.20;;;;;;6192491;23;20030;-92
2023/05/06 00:47:24;;;;;;;34.97;21.40;;;10.70;82.10;;;;;;6210358;22;20040;-92
2023/05/06 00:49:50;;;;;;;54.25;26.17;;;10.70;82.10;;;;;;6219363;23;20023;-93
2023/05/06 00:52:17;;;;;;;46.83;24.10;;;10.80;82.10;;;;;;6192354;22;20027;-93
2023/05/06 00:54:43;;;;;;;35.20;19.90;;;10.70;82.10;;;;;;6219458;23;20055;-90
2023/05/06 00:57:09;;;;;;;26.27;17.50;;;10.70;82.00;;;;;;6185540;22;20679;-93
2023/05/06 00:59:35;;;;;;;31.25;19.20;;;10.70;82.10;;;;;;6194068;23;20027;-93
2023/05/06 01:02:01;;;;;;;34.05;22.67;;;10.70;82.00;;;;;;6219102;23;20016;-93
2023/05/06 01:04:28;;;;;;;46.25;27.42;;;10.70;82.20;;;;;;6192400;23;20099;-93
2023/05/06 01:07:22;;;;;;;48.05;27.23;;;10.70;82.40;;;;;;6188143;23;20012;-93
2023/05/06 01:10:02;;;;;;;50.38;29.10;;;10.70;82.40;;;;;;6154140;23;20028;-93
2023/05/06 01:12:54;;;;;;;56.20;35.47;;;10.70;82.30;;;;;;6217122;23;20016;-93
2023/05/06 01:15:28;;;;;;;62.10;29.67;;;10.70;82.30;;;;;;6219101;23;20103;-93
2023/05/06 01:17:57;;;;;;;51.47;26.43;;;10.70;82.30;;;;;;6210431;23;20020;-93
2023/05/06 01:20:25;;;;;;;74.70;35.97;;;10.70;82.40;;;;;;6219138;23;20111;-91
2023/05/06 01:22:52;;;;;;;64.33;32.57;;;10.70;82.40;;;;;;6216377;23;20017;-91
2023/05/06 01:25:22;;;;;;;54.17;29.33;;;10.70;82.40;;;;;;6193382;23;20013;-93
2023/05/06 01:27:49;;;;;;;51.43;30.50;;;10.60;82.30;;;;;;6210384;23;20035;-93
2023/05/06 01:30:17;;;;;;;64.17;36.33;;;10.60;82.50;;;;;;6218771;23;20023;-92
2023/05/06 01:33:15;;;;;;;55.15;30.02;;;10.70;82.60;;;;;;6217211;23;20043;-91
2023/05/06 01:36:07;;;;;;;49.80;29.23;;;10.70;82.60;;;;;;6204844;23;20072;-93
2023/05/06 01:38:46;;;;;;;53.13;29.13;;;10.70;82.70;;;;;;6212998;23;20027;-93
2023/05/06 01:41:15;;;;;;;63.00;32.77;;;10.70;82.80;;;;;;6218398;23;20235;-91
2023/05/06 01:43:44;;;;;;;58.30;32.57;;;10.70;82.80;;;;;;6221610;22;20024;-93
2023/05/06 01:46:17;;;;;;;56.60;31.87;;;10.70;82.70;;;;;;6223240;22;20385;-94
2023/05/06 01:48:45;;;;;;;51.33;28.20;;;10.70;82.80;;;;;;6218014;22;20028;-92
2023/05/06 01:51:11;;;;;;;58.67;31.67;;;10.60;82.70;;;;;;6223435;22;20058;-92
2023/05/06 01:53:37;;;;;;;96.17;36.90;;;10.60;82.60;;;;;;6221496;22;20024;-94
2023/05/06 01:56:04;;;;;;;60.00;32.13;;;10.60;82.50;;;;;;6198440;22;20024;-93
2023/05/06 01:58:30;;;;;;;48.23;27.77;;;10.60;82.50;;;;;;6215178;22;20095;-93
2023/05/06 02:00:55;;;;;;;30.30;21.40;;;10.50;82.30;;;;;;6198336;22;20415;-93
2023/05/06 02:03:23;;;;;;;27.10;20.47;;;10.50;82.10;;;;;;6213009;22;20027;-92
2023/05/06 02:05:49;;;;;;;29.23;18.77;;;10.40;82.00;;;;;;6253650;22;20098;-93
2023/05/06 02:08:15;;;;;;;50.27;27.27;;;10.40;81.90;;;;;;6220799;22;20046;-92
2023/05/06 02:10:41;;;;;;;25.07;19.33;;;10.40;82.00;;;;;;6254483;22;20433;-91
2023/05/06 02:13:07;;;;;;;64.60;29.60;;;10.30;81.90;;;;;;6239885;22;20041;-93
2023/05/06 02:15:32;;;;;;;32.70;20.67;;;10.30;82.00;;;;;;6253783;22;20030;-93
2023/05/06 02:17:58;;;;;;;35.77;23.23;;;10.20;82.00;;;;;;6220435;22;20016;-93
2023/05/06 02:20:24;;;;;;;53.03;28.77;;;10.20;82.10;;;;;;6229030;22;20019;-93
2023/05/06 02:22:50;;;;;;;111.23;41.47;;;10.20;82.40;;;;;;6227051;22;20090;-92
2023/05/06 02:25:16;;;;;;;38.33;25.23;;;10.30;82.30;;;;;;6228660;22;20073;-93
2023/05/06 02:27:43;;;;;;;28.67;20.53;;;10.30;82.30;;;;;;6246043;22;20349;-91
2023/05/06 02:30:10;;;;;;;31.50;20.47;;;10.20;82.10;;;;;;6253680;22;20019;-92
2023/05/06 02:32:36;;;;;;;70.80;22.43;;;10.20;82.00;;;;;;6251691;22;20123;-92
2023/05/06 02:35:02;;;;;;;43.87;23.27;;;10.20;81.90;;;;;;6229054;22;20098;-92
2023/05/06 02:37:28;;;;;;;97.60;21.53;;;10.10;81.80;;;;;;6247249;22;20022;-92
2023/05/06 02:39:54;;;;;;;128.50;25.70;;;10.10;81.80;;;;;;6253906;22;20015;-92
2023/05/06 02:42:21;;;;;;;84.80;20.37;;;10.10;81.90;;;;;;6251718;22;20019;-92
2023/05/06 02:44:46;;;;;;;208.03;23.03;;;10.00;81.80;;;;;;6241666;22;20023;-91
2023/05/06 02:47:12;;;;;;;408.30;26.30;;;10.00;81.70;;;;;;6271755;22;20465;-91
2023/05/06 02:49:38;;;;;;;395.67;23.77;;;9.90;81.60;;;;;;6279164;22;20015;-92
2023/05/06 02:52:04;;;;;;;108.33;15.10;;;9.80;81.50;;;;;;6277601;22;20019;-92
2023/05/06 02:54:30;;;;;;;52.57;13.87;;;9.70;81.40;;;;;;6253407;22;20019;-92
2023/05/06 02:56:55;;;;;;;408.53;22.70;;;9.70;81.40;;;;;;6269853;22;20331;-93
2023/05/06 02:59:22;;;;;;;234.03;17.93;;;9.60;81.40;;;;;;6276593;22;20050;-91
2023/05/06 03:01:50;;;;;;;77.47;14.17;;;9.60;81.30;;;;;;6304938;22;20019;-91
2023/05/06 03:04:16;;;;;;;20.73;10.77;;;9.60;81.40;;;;;;6276910;22;20018;-92
2023/05/06 03:06:42;;;;;;;13.60;11.43;;;9.50;81.30;;;;;;6246424;22;20011;-93
2023/05/06 03:09:08;;;;;;;13.13;11.70;;;9.50;81.30;;;;;;6249559;22;20039;-92
2023/05/06 03:11:34;;;;;;;17.73;11.30;;;9.50;81.20;;;;;;6253191;22;20455;-92
2023/05/06 03:14:00;;;;;;;15.83;11.57;;;9.40;81.20;;;;;;6276635;22;20031;-92
2023/05/06 03:16:26;;;;;;;10.70;8.70;;;9.40;81.20;;;;;;6250212;22;20019;-93
2023/05/06 03:18:52;;;;;;;10.40;9.40;;;9.40;81.20;;;;;;6274779;22;20442;-93
2023/05/06 03:21:17;;;;;;;10.70;9.60;;;9.40;81.20;;;;;;6278800;22;20046;-93
2023/05/06 03:23:43;;;;;;;15.97;11.70;;;9.40;81.10;;;;;;6226360;22;20019;-92
2023/05/06 03:26:09;;;;;;;17.27;13.40;;;9.40;81.20;;;;;;6301459;22;20031;-93
2023/05/06 03:28:35;;;;;;;38.30;20.63;;;9.40;81.20;;;;;;6246416;22;20441;-92
2023/05/06 03:31:01;;;;;;;197.17;39.00;;;9.40;81.60;;;;;;6253324;22;20019;-92
2023/05/06 03:33:27;;;;;;;284.20;44.57;;;9.40;82.00;;;;;;6226796;22;20007;-92
2023/05/06 03:35:53;;;;;;;556.27;51.90;;;9.40;81.90;;;;;;6253235;22;20026;-91
2023/05/06 03:38:18;;;;;;;487.47;45.70;;;9.50;81.80;;;;;;6243855;22;20019;-92
2023/05/06 03:40:44;;;;;;;579.90;61.37;;;9.50;81.80;;;;;;6252996;22;20111;-92
2023/05/06 03:43:10;;;;;;;413.50;78.47;;;9.50;82.00;;;;;;6236710;22;20034;-91
2023/05/06 03:45:36;;;;;;;149.70;43.70;;;9.40;82.00;;;;;;6252550;22;20030;-92
2023/05/06 03:48:02;;;;;;;66.93;25.50;;;9.40;81.90;;;;;;6242559;22;20022;-91
2023/05/06 03:50:54;;;;;;;114.07;52.33;;;9.40;81.90;;;;;;6257843;22;20019;-96
2023/05/06 03:53:55;;;;;;;35.30;19.63;;;9.40;82.00;;;;;;6242360;22;20063;-96
2023/05/06 03:56:26;;;;;;;39.35;28.48;;;9.40;81.80;;;;;;6281675;22;20413;-96
2023/05/06 03:58:55;;;;;;;15.65;9.23;;;9.40;81.80;;;;;;6228490;22;20100;-94
2023/05/06 04:01:21;;;;;;;12.77;11.17;;;9.40;81.70;;;;;;6253342;22;20609;-92
2023/05/06 04:03:51;;;;;;;18.97;12.20;;;9.40;81.50;;;;;;6227061;22;20068;-95
2023/05/06 04:06:16;;;;;;;52.23;12.87;;;9.40;81.40;;;;;;6278431;22;20021;-93
2023/05/06 04:08:42;;;;;;;25.40;12.77;;;9.30;81.40;;;;;;6246542;22;20019;-92
2023/05/06 04:11:08;;;;;;;15.10;13.23;;;9.30;81.50;;;;;;6252808;22;20031;-92
2023/05/06 04:13:34;;;;;;;15.87;12.67;;;9.20;81.40;;;;;;6250582;22;20098;-93
2023/05/06 04:16:01;;;;;;;37.07;14.67;;;9.30;81.40;;;;;;6279132;22;20038;-91
2023/05/06 04:18:27;;;;;;;405.00;24.10;;;9.30;81.40;;;;;;6246083;22;20011;-91
2023/05/06 04:20:53;;;;;;;328.70;19.43;;;9.30;81.30;;;;;;6277876;22;20023;-92
2023/05/06 04:23:19;;;;;;;131.63;16.10;;;9.20;81.20;;;;;;6253368;22;20023;-93
2023/05/06 04:25:47;;;;;;;206.90;20.73;;;9.20;81.20;;;;;;6229650;22;20123;-91
2023/05/06 04:28:15;;;;;;;101.70;11.87;;;9.20;81.20;;;;;;6247914;22;20066;-93
2023/05/06 04:30:44;;;;;;;45.90;11.70;;;9.10;81.20;;;;;;6280730;22;20026;-92
2023/05/06 04:33:11;;;;;;;71.37;12.43;;;9.10;81.20;;;;;;6278461;22;20019;-91
2023/05/06 04:35:39;;;;;;;24.40;9.23;;;9.00;81.20;;;;;;6256744;22;20015;-92
2023/05/06 04:38:05;;;;;;;10.93;8.00;;;9.00;81.10;;;;;;6274593;22;20019;-91
2023/05/06 04:40:33;;;;;;;98.20;13.37;;;9.00;81.10;;;;;;6280464;22;20079;-92
2023/05/06 04:43:00;;;;;;;49.40;13.30;;;9.00;81.20;;;;;;6254134;22;20543;-92
2023/05/06 04:45:25;;;;;;;56.30;17.27;;;9.00;81.20;;;;;;6254401;22;20023;-92
2023/05/06 04:47:52;;;;;;;16.53;12.27;;;9.00;81.40;;;;;;6246894;22;20337;-91
2023/05/06 04:50:17;;;;;;;22.93;13.97;;;9.10;81.40;;;;;;6280569;22;20049;-91
2023/05/06 04:52:43;;;;;;;25.77;15.87;;;9.20;81.50;;;;;;6253082;22;20027;-91
2023/05/06 04:55:10;;;;;;;21.10;14.33;;;9.20;81.60;;;;;;6279704;22;20019;-92
2023/05/06 04:57:38;;;;;;;29.00;17.43;;;9.20;81.70;;;;;;6247091;22;20430;-92
2023/05/06 05:00:04;;;;;;;50.20;23.50;;;9.20;81.90;;;;;;6255330;22;20302;-93
2023/05/06 05:02:30;;;;;;;36.97;19.80;;;9.30;82.10;;;;;;6250900;22;20027;-92
2023/05/06 05:04:56;;;;;;;28.17;17.13;;;9.40;82.00;;;;;;6254608;22;20026;-93
2023/05/06 05:07:21;;;;;;;29.43;17.37;;;9.40;82.00;;;;;;6271856;22;20021;-92
2023/05/06 05:09:47;;;;;;;30.17;18.93;;;9.50;82.00;;;;;;6254813;22;20077;-93
2023/05/06 05:12:13;;;;;;;26.50;16.50;;;9.50;82.00;;;;;;6277992;22;20023;-93
2023/05/06 05:14:39;;;;;;;23.73;17.20;;;9.60;81.90;;;;;;6255397;22;20019;-93
2023/05/06 05:17:05;;;;;;;27.70;17.53;;;9.60;82.00;;;;;;6246721;22;20018;-92
2023/05/06 05:19:30;;;;;;;25.23;16.90;;;9.70;82.00;;;;;;6254434;22;20088;-91
2023/05/06 05:21:56;;;;;;;32.73;20.03;;;9.70;82.10;;;;;;6279121;22;20038;-92
2023/05/06 05:24:22;;;;;;;36.17;22.03;;;9.80;82.00;;;;;;6252128;22;20027;-92
2023/05/06 05:26:51;;;;;;;34.97;21.30;;;9.90;82.10;;;;;;6248850;22;20022;-93
2023/05/06 05:29:17;;;;;;;47.20;25.07;;;10.00;82.10;;;;;;6227081;22;20015;-93
2023/05/06 05:31:42;;;;;;;46.47;26.20;;;10.00;82.20;;;;;;6279416;22;20031;-93
2023/05/06 05:34:08;;;;;;;36.57;22.83;;;10.00;82.20;;;;;;6278532;22;20019;-92
2023/05/06 05:36:34;;;;;;;45.90;25.80;;;10.00;82.20;;;;;;6249443;22;20019;-91
2023/05/06 05:39:00;;;;;;;40.47;23.37;;;10.10;82.20;;;;;;6276641;22;20019;-93
2023/05/06 05:41:26;;;;;;;43.33;24.97;;;10.10;82.30;;;;;;6253312;22;20026;-93
2023/05/06 05:43:55;;;;;;;48.97;27.00;;;10.10;82.20;;;;;;6251577;22;20022;-94
2023/05/06 05:46:20;;;;;;;43.00;28.23;;;10.20;82.20;;;;;;6227242;22;20021;-94
2023/05/06 05:48:46;;;;;;;49.57;28.83;;;10.20;82.40;;;;;;6249069;22;20344;-93
2023/05/06 05:51:13;;;;;;;49.80;29.97;;;10.30;82.50;;;;;;6228420;22;20019;-94
2023/05/06 05:53:39;;;;;;;51.92;31.42;;;10.30;82.80;;;;;;6252632;22;20019;-93
2023/05/06 05:56:07;;;;;;;59.93;32.50;;;10.40;82.90;;;;;;6228191;22;20072;-94
2023/05/06 05:58:33;;;;;;;55.57;32.87;;;10.40;82.80;;;;;;6243849;22;20035;-93
2023/05/06 06:01:00;;;;;;;50.70;31.10;;;10.50;82.80;;;;;;6227912;22;20086;-94
2023/05/06 06:03:26;;;;;;;55.17;32.07;;;10.50;82.80;;;;;;6226348;22;20027;-91
2023/05/06 06:05:54;;;;;;;49.03;31.87;;;10.60;82.60;;;;;;6228859;22;20015;-92
2023/05/06 06:08:20;;;;;;;51.13;30.90;;;10.60;82.70;;;;;;6217127;22;20023;-94
2023/05/06 06:10:46;;;;;;;52.97;31.70;;;10.60;82.60;;;;;;6228188;22;20022;-91
2023/05/06 06:13:12;;;;;;;47.40;29.93;;;10.70;82.50;;;;;;6226542;22;20445;-93
2023/05/06 06:15:38;;;;;;;46.63;28.33;;;10.70;82.50;;;;;;6228113;22;20015;-93
2023/05/06 06:18:06;;;;;;;64.37;33.90;;;10.70;82.40;;;;;;6220281;22;20023;-92
2023/05/06 06:20:32;;;;;;;45.43;28.93;;;10.70;82.40;;;;;;6228923;22;20106;-93
2023/05/06 06:22:58;;;;;;;57.22;31.48;;;10.80;82.50;;;;;;6226411;22;20035;-93
2023/05/06 06:25:24;;;;;;;42.42;27.55;;;10.80;82.40;;;;;;6228546;22;20015;-93
2023/05/06 06:27:50;;;;;;;43.13;29.00;;;10.90;82.40;;;;;;6241820;22;20019;-93
2023/05/06 06:30:16;;;;;;;42.38;27.20;;;10.90;82.30;;;;;;6253138;22;20042;-92
2023/05/06 06:32:52;;;;;;;44.72;28.35;;;11.00;82.40;;;;;;6226050;22;20019;-93
2023/05/06 06:35:19;;;;;;;45.90;29.30;;;11.10;82.30;;;;;;6253552;22;20037;-92
2023/05/06 06:37:45;;;;;;;43.95;27.02;;;11.10;82.30;;;;;;6247145;22;20027;-93
2023/05/06 06:40:12;;;;;;;43.33;29.25;;;11.10;82.30;;;;;;6228544;22;20011;-93
2023/05/06 06:42:38;;;;;;;48.80;29.17;;;11.10;82.40;;;;;;6251039;22;20073;-93
2023/05/06 06:45:09;;;;;;;37.58;24.40;;;11.20;82.30;;;;;;6263405;22;20016;-93
2023/05/06 06:47:35;;;;;;;40.15;26.13;;;11.30;82.30;;;;;;6268658;22;20019;-93
2023/05/06 06:50:01;;;;;;;37.90;26.20;;;11.30;82.30;;;;;;6253915;22;20149;-93
2023/05/06 06:52:27;;;;;;;41.25;25.75;;;11.40;82.20;;;;;;6276738;22;20504;-93
2023/05/06 06:54:53;;;;;;;38.67;26.48;;;11.40;82.10;;;;;;6253419;22;20610;-92
2023/05/06 06:58:04;;;;;;;38.00;24.77;;;11.50;82.20;;;;;;5106098;27;1334490;-93
2023/05/06 07:00:32;;;;;;;39.53;26.02;;;11.50;82.10;;;;;;5087575;28;20101;-93
2023/05/06 07:02:58;;;;;;;38.50;25.10;;;11.50;82.00;;;;;;5038757;28;20086;-94
2023/05/06 07:05:25;;;;;;;41.05;26.45;;;11.50;82.00;;;;;;5074170;28;20083;-93
2023/05/06 07:07:51;;;;;;;40.78;25.98;;;11.50;81.90;;;;;;5049736;28;20040;-92
2023/05/06 07:10:17;;;;;;;36.60;24.30;;;11.50;82.00;;;;;;5041322;28;20039;-92
2023/05/06 07:12:43;;;;;;;37.90;24.85;;;11.50;82.00;;;;;;5079341;28;20063;-91
2023/05/06 07:15:09;;;;;;;36.60;24.63;;;11.50;82.10;;;;;;5065354;28;20092;-92
2023/05/06 07:17:35;;;;;;;38.90;24.38;;;11.50;82.00;;;;;;5083625;28;20066;-91
2023/05/06 07:20:01;;;;;;;38.42;24.75;;;11.60;82.00;;;;;;5075198;28;20044;-92
2023/05/06 07:22:28;;;;;;;42.20;26.58;;;11.70;82.20;;;;;;5069172;28;20035;-92
2023/05/06 07:24:54;;;;;;;38.47;25.70;;;11.70;82.20;;;;;;5092940;28;20051;-92
2023/05/06 07:27:19;;;;;;;37.20;23.73;;;11.70;82.00;;;;;;5086460;28;20050;-92
2023/05/06 07:29:45;;;;;;;40.47;25.02;;;11.70;82.00;;;;;;5057091;28;20044;-92
2023/05/06 07:32:11;;;;;;;38.55;25.17;;;11.70;82.00;;;;;;5080492;28;20046;-92
2023/05/06 07:34:37;;;;;;;32.92;23.25;;;11.70;82.00;;;;;;5110809;28;20368;-92
2023/05/06 07:37:03;;;;;;;35.22;23.85;;;11.80;82.00;;;;;;5085456;28;20031;-91
2023/05/06 07:39:30;;;;;;;32.00;21.88;;;11.90;82.10;;;;;;5074560;28;20050;-92
2023/05/06 07:42:02;;;;;;;33.00;22.23;;;11.90;82.00;;;;;;5089019;28;20051;-96
2023/05/06 07:44:30;;;;;;;32.00;21.55;;;11.90;81.80;;;;;;5097023;28;20121;-96
2023/05/06 07:46:56;;;;;;;35.70;21.95;;;11.90;81.80;;;;;;5063452;28;20043;-91
2023/05/06 07:49:22;;;;;;;25.60;19.85;;;12.00;81.70;;;;;;5075163;28;20096;-92
2023/05/06 07:51:47;;;;;;;24.50;16.55;;;12.00;81.60;;;;;;5094540;28;20047;-92
2023/05/06 07:54:13;;;;;;;21.65;16.27;;;12.10;81.40;;;;;;5091886;28;20051;-93
2023/05/06 07:56:39;;;;;;;23.95;16.50;;;12.10;81.50;;;;;;5070098;28;20078;-93
2023/05/06 07:59:05;;;;;;;19.58;14.68;;;12.10;81.50;;;;;;5088894;28;20381;-91
2023/05/06 08:01:31;;;;;;;19.02;13.82;;;12.10;81.30;;;;;;5093606;28;20038;-92
2023/05/06 08:03:56;;;;;;;18.90;14.38;;;12.20;80.90;;;;;;5105688;28;20078;-91
2023/05/06 08:06:23;;;;;;;21.45;15.27;;;12.20;81.10;;;;;;5071657;28;20040;-92
2023/05/06 08:08:48;;;;;;;26.35;18.42;;;12.30;80.80;;;;;;5075435;28;20104;-93
2023/05/06 08:11:14;;;;;;;23.80;17.30;;;12.40;81.10;;;;;;5080693;28;20039;-91
2023/05/06 08:13:40;;;;;;;23.20;17.15;;;12.50;81.30;;;;;;5088827;28;20075;-93
2023/05/06 08:16:09;;;;;;;23.45;17.45;;;12.50;80.80;;;;;;5056341;28;20613;-93
2023/05/06 08:18:34;;;;;;;23.05;17.33;;;12.70;81.20;;;;;;5074018;28;20133;-91
2023/05/06 08:21:00;;;;;;;19.88;14.70;;;12.80;81.20;;;;;;5054709;28;20048;-92
2023/05/06 08:23:26;;;;;;;20.85;15.43;;;12.90;80.70;;;;;;5066043;28;20048;-91
2023/05/06 08:25:52;;;;;;;19.67;14.23;;;13.00;80.50;;;;;;5109630;28;20134;-93
2023/05/06 08:28:18;;;;;;;18.30;13.35;;;13.10;80.10;;;;;;5053279;28;20048;-91
2023/05/06 08:30:47;;;;;;;14.73;11.68;;;13.10;80.30;;;;;;5078822;28;20036;-91
2023/05/06 08:33:13;;;;;;;14.60;10.95;;;13.20;79.30;;;;;;5073368;28;20048;-91
2023/05/06 08:35:41;;;;;;;15.70;11.73;;;13.30;79.00;;;;;;5087587;28;20046;-91
2023/05/06 08:38:07;;;;;;;16.05;11.05;;;13.30;79.00;;;;;;5046134;28;20055;-93
2023/05/06 08:40:33;;;;;;;15.13;11.00;;;13.40;79.10;;;;;;5096249;28;20048;-91
2023/05/06 08:43:01;;;;;;;16.52;11.77;;;13.50;78.70;;;;;;5078486;28;20047;-92
2023/05/06 08:45:27;;;;;;;16.35;11.48;;;13.50;78.70;;;;;;5080086;28;20055;-92
2023/05/06 08:47:53;;;;;;;14.13;10.82;;;13.60;78.50;;;;;;5056633;28;20101;-94
2023/05/06 08:50:19;;;;;;;13.38;10.63;;;13.60;78.20;;;;;;5084983;28;20043;-93
2023/05/06 08:52:46;;;;;;;13.80;11.05;;;13.80;78.60;;;;;;5070349;28;20054;-92
2023/05/06 08:55:13;;;;;;;13.27;11.13;;;13.90;78.30;;;;;;5091217;28;20096;-92
2023/05/06 08:57:41;;;;;;;14.50;10.95;;;14.00;77.90;;;;;;5072847;28;20504;-92
2023/05/06 09:00:10;;;;;;;13.77;11.02;;;14.00;77.60;;;;;;5066698;28;20048;-94
2023/05/06 09:02:37;;;;;;;15.75;12.68;;;14.10;77.50;;;;;;5074382;28;20044;-94
2023/05/06 09:05:03;;;;;;;16.35;12.45;;;14.20;77.50;;;;;;5059863;28;20048;-91
2023/05/06 09:07:29;;;;;;;14.27;12.00;;;14.30;77.70;;;;;;5055025;28;20115;-92
2023/05/06 09:09:55;;;;;;;15.38;12.35;;;14.30;77.50;;;;;;5075300;28;20135;-91
2023/05/06 09:12:23;;;;;;;16.27;12.48;;;14.30;77.40;;;;;;5057485;28;20054;-90
2023/05/06 09:14:50;;;;;;;15.48;11.93;;;14.40;77.60;;;;;;5076459;28;20059;-93
2023/05/06 09:17:25;;;;;;;12.48;10.32;;;14.50;77.30;;;;;;5032737;28;20568;-91
2023/05/06 09:19:55;;;;;;;13.55;11.20;;;14.50;76.80;;;;;;5093221;28;20059;-91
2023/05/06 09:22:30;;;;;;;12.63;11.10;;;14.50;76.80;;;;;;5088029;28;20047;-91
2023/05/06 09:24:57;;;;;;;15.02;11.18;;;14.60;76.70;;;;;;5058774;28;20048;-93
2023/05/06 09:27:30;;;;;;;15.38;12.15;;;14.60;77.10;;;;;;5058463;28;20117;-89
2023/05/06 09:30:01;;;;;;;14.68;11.70;;;14.70;76.90;;;;;;5074624;28;20444;-91
2023/05/06 09:32:30;;;;;;;13.57;11.23;;;14.90;76.60;;;;;;5100364;28;20123;-91
2023/05/06 09:34:56;;;;;;;12.85;10.05;;;15.00;76.80;;;;;;5069801;28;20048;-90
2023/05/06 09:37:25;;;;;;;12.95;9.85;;;15.20;76.50;;;;;;5084130;28;20523;-90
2023/05/06 09:39:56;;;;;;;12.52;9.80;;;15.30;75.90;;;;;;5073362;28;20043;-92
2023/05/06 09:42:27;;;;;;;13.23;9.57;;;15.40;76.10;;;;;;5073739;28;20070;-90
2023/05/06 09:44:55;;;;;;;11.15;8.07;;;15.60;75.70;;;;;;5083698;28;20052;-90
2023/05/06 09:47:25;;;;;;;10.98;8.10;;;15.60;74.40;;;;;;5054890;28;20400;-89
2023/05/06 09:50:00;;;;;;;15.20;8.77;;;15.70;74.20;;;;;;5058278;28;20048;-90
2023/05/06 09:52:27;;;;;;;12.55;9.10;;;15.80;73.60;;;;;;5076620;28;20067;-91
2023/05/06 09:54:54;;;;;;;11.50;8.23;;;15.80;73.70;;;;;;5078209;28;20082;-91
2023/05/06 09:57:24;;;;;;;9.77;8.23;;;15.70;73.50;;;;;;5079794;28;20060;-89
2023/05/06 09:59:53;;;;;;;13.88;9.20;;;15.80;73.70;;;;;;5077864;28;20055;-89
2023/05/06 10:02:21;;;;;;;13.40;9.48;;;15.80;73.60;;;;;;5074266;28;20483;-91
2023/05/06 10:04:51;;;;;;;14.55;9.75;;;15.80;73.60;;;;;;5081452;28;20036;-92
2023/05/06 10:07:21;;;;;;;11.07;9.40;;;15.80;73.80;;;;;;5070774;28;20043;-91
2023/05/06 10:09:49;;;;;;;10.68;9.55;;;15.90;73.90;;;;;;5067775;28;20043;-90
2023/05/06 10:12:15;;;;;;;11.68;9.13;;;16.00;73.60;;;;;;5065713;28;20040;-91
2023/05/06 10:14:41;;;;;;;11.25;8.88;;;16.00;73.20;;;;;;5061730;28;20090;-92
2023/05/06 10:17:08;;;;;;;10.85;9.15;;;16.10;73.10;;;;;;5041965;28;20255;-91
2023/05/06 10:19:38;;;;;;;14.25;10.23;;;16.30;73.00;;;;;;5077828;28;20046;-90
2023/05/06 10:22:40;;;;;;;10.73;8.77;;;16.40;73.00;;;;;;5060293;28;20059;-90
2023/05/06 10:25:15;;;;;;;15.48;9.02;;;16.50;72.10;;;;;;5061645;28;20042;-90
2023/05/06 10:27:43;;;;;;;18.95;10.02;;;16.60;72.30;;;;;;5086195;28;20054;-89
2023/05/06 10:30:10;;;;;;;12.35;9.25;;;16.60;72.20;;;;;;5077069;28;20135;-91
2023/05/06 10:32:42;;;;;;;11.80;9.27;;;16.50;72.30;;;;;;5074052;28;20610;-90
2023/05/06 10:35:14;;;;;;;;;;;16.40;72.10;;;;;;5086612;28;20043;-91
2023/05/06 10:37:41;;;;;;;13.32;10.35;;;16.20;70.70;;;;;;5066102;28;20001;-91
2023/05/06 10:40:08;;;;;;;11.65;10.15;;;16.10;72.60;;;;;;5086025;28;20055;-90
2023/05/06 10:42:34;;;;;;;13.25;10.02;;;16.00;72.70;;;;;;5065285;28;20045;-91
2023/05/06 10:45:03;;;;;;;11.05;9.85;;;16.00;72.80;;;;;;5064260;28;20097;-90
2023/05/06 10:47:51;;;;;;;14.73;10.98;;;15.90;72.90;;;;;;5047394;28;20040;-91
2023/05/06 10:50:17;;;;;;;11.18;9.98;;;15.80;72.10;;;;;;5072467;28;20059;-93
2023/05/06 10:57:15;;;;;;;11.70;10.50;;;15.80;72.50;;;;;;5063607;28;20054;-95
2023/05/06 10:59:45;;;;;;;13.95;10.27;;;15.70;73.00;;;;;;5068781;28;20044;-92
2023/05/06 11:02:12;;;;;;;12.63;11.07;;;15.70;73.30;;;;;;5033696;28;20110;-92
2023/05/06 11:04:41;;;;;;;14.90;11.60;;;15.80;73.40;;;;;;5087265;28;20046;-92
2023/05/06 11:07:22;;;;;;;13.68;10.77;;;15.80;73.50;;;;;;5068663;28;20082;-91
2023/05/06 11:10:06;;;;;;;12.65;11.25;;;15.80;73.60;;;;;;5080796;28;20058;-92
2023/05/06 11:12:47;;;;;;;12.23;10.93;;;15.80;73.50;;;;;;5064796;28;20373;-91
2023/05/06 11:15:35;;;;;;;12.95;11.45;;;16.00;73.50;;;;;;5069533;28;20047;-92
2023/05/06 11:21:12;;;;;;;12.52;10.98;;;16.00;72.90;;;;;;5094307;28;20043;-92
2023/05/06 11:23:40;;;;;;;13.95;11.82;;;16.10;72.80;;;;;;5058449;28;20047;-92
2023/05/06 11:26:10;;;;;;;15.30;12.20;;;16.10;73.10;;;;;;5079382;28;20058;-92
2023/05/06 11:28:36;;;;;;;15.57;13.80;;;16.20;73.20;;;;;;5081187;28;20059;-89
2023/05/06 11:31:02;;;;;;;15.20;12.80;;;16.20;73.00;;;;;;5086243;28;20048;-91
2023/05/06 11:33:32;;;;;;;18.85;14.00;;;16.20;73.10;;;;;;5063344;28;20039;-90
2023/05/06 11:35:59;;;;;;;20.02;15.05;;;16.20;73.50;;;;;;5065963;28;20043;-91
2023/05/06 11:38:44;;;;;;;18.33;15.70;;;16.20;73.70;;;;;;5045314;28;20137;-91
2023/05/06 11:41:11;;;;;;;15.95;14.25;;;16.20;74.00;;;;;;5093230;28;20059;-90
2023/05/06 11:43:37;;;;;;;17.35;15.40;;;16.20;74.00;;;;;;5061561;28;20607;-90
2023/05/06 11:46:03;;;;;;;17.33;15.50;;;16.10;74.10;;;;;;5056050;28;20036;-91
2023/05/06 11:48:34;;;;;;;18.60;15.80;;;16.00;74.30;;;;;;5046809;28;20044;-92
2023/05/06 11:51:00;;;;;;;19.92;16.08;;;16.00;74.50;;;;;;5056922;28;20044;-90
2023/05/06 11:53:31;;;;;;;20.92;16.33;;;16.00;74.70;;;;;;5051756;28;20130;-91
2023/05/06 11:55:57;;;;;;;21.58;15.80;;;15.90;74.70;;;;;;5078136;28;20059;-91
2023/05/06 11:58:27;;;;;;;15.93;13.43;;;15.80;75.00;;;;;;5058911;28;20679;-93
2023/05/06 12:03:54;;;;;;;17.13;12.95;;;15.60;75.40;;;;;;5157222;22;20046;-92
2023/05/06 12:06:32;;;;;;;14.55;10.20;;;15.30;75.00;;;;;;4968231;28;20045;-92
2023/05/06 12:09:04;;;;;;;15.25;11.15;;;15.00;75.10;;;;;;4994434;28;20049;-91
2023/05/06 12:11:30;;;;;;;14.98;9.15;;;14.80;75.40;;;;;;4985012;28;20037;-90
2023/05/06 12:13:58;;;;;;;8.63;5.50;;;14.60;76.00;;;;;;4995117;28;20113;-91
2023/05/06 12:16:25;;;;;;;9.13;5.35;;;14.40;75.70;;;;;;4966027;28;20548;-93
2023/05/06 12:18:56;;;;;;;6.32;3.90;;;14.20;75.50;;;;;;4978475;28;20057;-91
2023/05/06 12:21:23;;;;;;;4.65;3.10;;;14.10;75.50;;;;;;4978394;28;20498;-91
2023/05/06 12:23:54;;;;;;;4.68;2.60;;;14.00;75.30;;;;;;4985764;28;20048;-92
2023/05/06 12:26:21;;;;;;;5.80;4.07;;;14.00;75.40;;;;;;5012025;28;20816;-93
2023/05/06 12:29:11;;;;;;;5.18;3.88;;;14.00;75.60;;;;;;4939205;28;20082;-91
2023/05/06 12:31:37;;;;;;;5.43;3.67;;;14.00;75.50;;;;;;4983017;28;20443;-91
2023/05/06 12:34:04;;;;;;;6.07;4.15;;;14.00;75.80;;;;;;4965393;28;20097;-91
2023/05/06 12:36:31;;;;;;;8.73;5.18;;;14.10;75.90;;;;;;4997509;28;20042;-90
2023/05/06 12:38:59;;;;;;;8.32;5.75;;;14.20;76.30;;;;;;4983572;28;20082;-91
2023/05/06 12:41:45;;;;;;;6.45;4.20;;;14.20;76.30;;;;;;4961073;28;20050;-89
2023/05/06 12:44:34;;;;;;;7.38;3.60;;;14.20;76.20;;;;;;4972334;28;20080;-89
2023/05/06 12:47:06;;;;;;;6.35;3.83;;;14.20;76.00;;;;;;4967133;28;20050;-87